sensor_id;sensor_type;location;lat;lon;timestamp;temperature;humidity
76567;DHT22;65428;53.194;6.132;2023-08-21T00:00:06;14.90;99.90
76567;DHT22;65428;53.194;6.132;2023-08-21T00:02:32;14.40;99.90
76567;DHT22;65428;53.194;6.132;2023-08-21T00:04:58;14.70;99.90
76567;DHT22;65428;53.194;6.132;2023-08-21T00:07:23;14.60;99.90
76567;DHT22;65428;53.194;6.132;2023-08-21T00:09:49;14.30;99.90
76567;DHT22;65428;53.194;6.132;2023-08-21T00:12:16;14.00;99.90
76567;DHT22;65428;53.194;6.132;2023-08-21T00:14:41;14.20;99.90
76567;DHT22;65428;53.194;6.132;2023-08-21T00:17:07;14.50;99.90
76567;DHT22;65428;53.194;6.132;2023-08-21T00:19:33;14.50;99.90
76567;DHT22;65428;53.194;6.132;2023-08-21T00:22:00;13.90;99.90
76567;DHT22;65428;53.194;6.132;2023-08-21T00:24:25;14.60;99.90
76567;DHT22;65428;53.194;6.132;2023-08-21T00:26:51;14.30;99.90
76567;DHT22;65428;53.194;6.132;2023-08-21T00:29:17;14.10;99.90
76567;DHT22;65428;53.194;6.132;2023-08-21T00:31:42;14.50;99.90
76567;DHT22;65428;53.194;6.132;2023-08-21T00:34:08;14.10;99.90
76567;DHT22;65428;53.194;6.132;2023-08-21T00:36:34;14.50;99.90
76567;DHT22;65428;53.194;6.132;2023-08-21T00:38:59;14.10;99.90
76567;DHT22;65428;53.194;6.132;2023-08-21T00:41:25;14.30;99.90
76567;DHT22;65428;53.194;6.132;2023-08-21T00:43:51;14.10;99.90
76567;DHT22;65428;53.194;6.132;2023-08-21T00:46:16;13.90;99.90
76567;DHT22;65428;53.194;6.132;2023-08-21T00:48:43;14.00;99.90
76567;DHT22;65428;53.194;6.132;2023-08-21T00:51:10;14.10;99.90
76567;DHT22;65428;53.194;6.132;2023-08-21T00:53:37;14.10;99.90
76567;DHT22;65428;53.194;6.132;2023-08-21T00:56:03;13.90;99.90
76567;DHT22;65428;53.194;6.132;2023-08-21T00:58:29;13.90;99.90
76567;DHT22;65428;53.194;6.132;2023-08-21T01:00:55;14.10;99.90
76567;DHT22;65428;53.194;6.132;2023-08-21T01:03:21;13.70;99.90
76567;DHT22;65428;53.194;6.132;2023-08-21T01:05:47;14.20;99.90
76567;DHT22;65428;53.194;6.132;2023-08-21T01:08:29;14.00;99.90
76567;DHT22;65428;53.194;6.132;2023-08-21T01:11:14;13.80;99.90
76567;DHT22;65428;53.194;6.132;2023-08-21T01:14:06;13.80;99.90
76567;DHT22;65428;53.194;6.132;2023-08-21T01:16:37;13.70;99.90
76567;DHT22;65428;53.194;6.132;2023-08-21T01:19:03;13.70;99.90
76567;DHT22;65428;53.194;6.132;2023-08-21T01:21:34;14.00;99.90
76567;DHT22;65428;53.194;6.132;2023-08-21T01:24:00;13.60;99.90
76567;DHT22;65428;53.194;6.132;2023-08-21T01:26:25;13.80;99.90
76567;DHT22;65428;53.194;6.132;2023-08-21T01:28:51;13.50;99.90
76567;DHT22;65428;53.194;6.132;2023-08-21T01:31:34;14.10;99.90
76567;DHT22;65428;53.194;6.132;2023-08-21T01:34:04;13.60;99.90
76567;DHT22;65428;53.194;6.132;2023-08-21T01:36:32;13.80;99.90
76567;DHT22;65428;53.194;6.132;2023-08-21T01:38:58;13.50;99.90
76567;DHT22;65428;53.194;6.132;2023-08-21T01:41:24;13.50;99.90
76567;DHT22;65428;53.194;6.132;2023-08-21T01:43:51;13.50;99.90
76567;DHT22;65428;53.194;6.132;2023-08-21T01:46:17;13.50;99.90
76567;DHT22;65428;53.194;6.132;2023-08-21T01:48:43;13.50;99.90
76567;DHT22;65428;53.194;6.132;2023-08-21T01:51:08;13.60;99.90
76567;DHT22;65428;53.194;6.132;2023-08-21T01:53:34;13.50;99.90
76567;DHT22;65428;53.194;6.132;2023-08-21T01:55:59;13.80;99.90
76567;DHT22;65428;53.194;6.132;2023-08-21T01:58:25;13.80;99.90
76567;DHT22;65428;53.194;6.132;2023-08-21T02:00:51;13.70;99.90
76567;DHT22;65428;53.194;6.132;2023-08-21T02:03:17;13.60;99.90
76567;DHT22;65428;53.194;6.132;2023-08-21T02:05:42;13.70;99.90
76567;DHT22;65428;53.194;6.132;2023-08-21T02:08:13;13.50;99.90
76567;DHT22;65428;53.194;6.132;2023-08-21T02:10:57;13.60;99.90
76567;DHT22;65428;53.194;6.132;2023-08-21T02:13:23;13.40;99.90
76567;DHT22;65428;53.194;6.132;2023-08-21T02:15:49;13.40;99.90
76567;DHT22;65428;53.194;6.132;2023-08-21T02:18:15;13.70;99.90
76567;DHT22;65428;53.194;6.132;2023-08-21T02:20:41;13.30;99.90
76567;DHT22;65428;53.194;6.132;2023-08-21T02:23:06;13.30;99.90
76567;DHT22;65428;53.194;6.132;2023-08-21T02:25:32;13.50;99.90
76567;DHT22;65428;53.194;6.132;2023-08-21T02:27:58;13.20;99.90
76567;DHT22;65428;53.194;6.132;2023-08-21T02:30:24;13.20;99.90
76567;DHT22;65428;53.194;6.132;2023-08-21T02:32:54;13.50;99.90
76567;DHT22;65428;53.194;6.132;2023-08-21T02:35:20;13.20;99.90
76567;DHT22;65428;53.194;6.132;2023-08-21T02:37:46;13.80;99.90
76567;DHT22;65428;53.194;6.132;2023-08-21T02:40:12;13.40;99.90
76567;DHT22;65428;53.194;6.132;2023-08-21T02:42:38;13.30;99.90
76567;DHT22;65428;53.194;6.132;2023-08-21T02:45:04;13.20;99.90
76567;DHT22;65428;53.194;6.132;2023-08-21T02:47:43;13.00;99.90
76567;DHT22;65428;53.194;6.132;2023-08-21T02:50:09;13.10;99.90
76567;DHT22;65428;53.194;6.132;2023-08-21T02:52:35;12.90;99.90
76567;DHT22;65428;53.194;6.132;2023-08-21T02:55:02;13.30;99.90
76567;DHT22;65428;53.194;6.132;2023-08-21T02:57:28;13.10;99.90
76567;DHT22;65428;53.194;6.132;2023-08-21T02:59:55;13.30;99.90
76567;DHT22;65428;53.194;6.132;2023-08-21T03:02:21;13.10;99.90
76567;DHT22;65428;53.194;6.132;2023-08-21T03:04:47;13.10;99.90
76567;DHT22;65428;53.194;6.132;2023-08-21T03:07:13;13.10;99.90
76567;DHT22;65428;53.194;6.132;2023-08-21T03:09:40;13.40;99.90
76567;DHT22;65428;53.194;6.132;2023-08-21T03:12:06;13.30;99.90
76567;DHT22;65428;53.194;6.132;2023-08-21T03:14:32;13.10;99.90
76567;DHT22;65428;53.194;6.132;2023-08-21T03:16:58;13.20;99.90
76567;DHT22;65428;53.194;6.132;2023-08-21T03:19:24;13.50;99.90
76567;DHT22;65428;53.194;6.132;2023-08-21T03:21:49;13.30;99.90
76567;DHT22;65428;53.194;6.132;2023-08-21T03:24:15;13.90;99.90
76567;DHT22;65428;53.194;6.132;2023-08-21T03:26:41;13.10;99.90
76567;DHT22;65428;53.194;6.132;2023-08-21T03:29:06;13.80;99.90
76567;DHT22;65428;53.194;6.132;2023-08-21T03:31:32;12.90;99.90
76567;DHT22;65428;53.194;6.132;2023-08-21T03:33:58;13.30;99.90
76567;DHT22;65428;53.194;6.132;2023-08-21T03:36:24;13.30;99.90
76567;DHT22;65428;53.194;6.132;2023-08-21T03:38:59;13.40;99.90
76567;DHT22;65428;53.194;6.132;2023-08-21T03:41:25;13.20;99.90
76567;DHT22;65428;53.194;6.132;2023-08-21T03:43:51;13.00;99.90
76567;DHT22;65428;53.194;6.132;2023-08-21T03:46:17;13.00;99.90
76567;DHT22;65428;53.194;6.132;2023-08-21T03:48:42;13.10;99.90
76567;DHT22;65428;53.194;6.132;2023-08-21T03:51:08;13.50;99.90
76567;DHT22;65428;53.194;6.132;2023-08-21T03:53:34;13.10;99.90
76567;DHT22;65428;53.194;6.132;2023-08-21T03:55:59;13.10;99.90
76567;DHT22;65428;53.194;6.132;2023-08-21T03:58:25;13.10;99.90
76567;DHT22;65428;53.194;6.132;2023-08-21T04:00:53;13.00;99.90
76567;DHT22;65428;53.194;6.132;2023-08-21T04:03:19;13.40;99.90
76567;DHT22;65428;53.194;6.132;2023-08-21T04:05:45;13.10;99.90
76567;DHT22;65428;53.194;6.132;2023-08-21T04:08:10;13.30;99.90
76567;DHT22;65428;53.194;6.132;2023-08-21T04:10:36;13.00;99.90
76567;DHT22;65428;53.194;6.132;2023-08-21T04:13:04;13.00;99.90
76567;DHT22;65428;53.194;6.132;2023-08-21T04:15:32;13.00;99.90
76567;DHT22;65428;53.194;6.132;2023-08-21T04:17:57;13.00;99.90
76567;DHT22;65428;53.194;6.132;2023-08-21T04:20:23;13.00;99.90
76567;DHT22;65428;53.194;6.132;2023-08-21T04:22:49;13.20;99.90
76567;DHT22;65428;53.194;6.132;2023-08-21T04:25:15;12.70;99.90
76567;DHT22;65428;53.194;6.132;2023-08-21T04:27:41;13.00;99.90
76567;DHT22;65428;53.194;6.132;2023-08-21T04:30:08;13.40;99.90
76567;DHT22;65428;53.194;6.132;2023-08-21T04:32:34;13.00;99.90
76567;DHT22;65428;53.194;6.132;2023-08-21T04:35:00;13.10;99.90
76567;DHT22;65428;53.194;6.132;2023-08-21T04:37:26;13.00;99.90
76567;DHT22;65428;53.194;6.132;2023-08-21T04:39:55;12.90;99.90
76567;DHT22;65428;53.194;6.132;2023-08-21T04:42:21;13.00;99.90
76567;DHT22;65428;53.194;6.132;2023-08-21T04:44:47;12.90;99.90
76567;DHT22;65428;53.194;6.132;2023-08-21T04:47:20;12.90;99.90
76567;DHT22;65428;53.194;6.132;2023-08-21T04:49:51;12.90;99.90
76567;DHT22;65428;53.194;6.132;2023-08-21T04:52:17;12.90;99.90
76567;DHT22;65428;53.194;6.132;2023-08-21T04:54:43;13.20;99.90
76567;DHT22;65428;53.194;6.132;2023-08-21T04:57:08;13.20;99.90
76567;DHT22;65428;53.194;6.132;2023-08-21T04:59:35;13.00;99.90
76567;DHT22;65428;53.194;6.132;2023-08-21T05:02:01;13.00;99.90
76567;DHT22;65428;53.194;6.132;2023-08-21T05:04:27;13.10;99.90
76567;DHT22;65428;53.194;6.132;2023-08-21T05:06:53;13.30;99.90
76567;DHT22;65428;53.194;6.132;2023-08-21T05:09:19;13.10;99.90
76567;DHT22;65428;53.194;6.132;2023-08-21T05:11:44;13.10;99.90
76567;DHT22;65428;53.194;6.132;2023-08-21T05:14:10;13.60;99.90
76567;DHT22;65428;53.194;6.132;2023-08-21T05:16:36;13.40;99.90
76567;DHT22;65428;53.194;6.132;2023-08-21T05:19:01;13.50;99.90
76567;DHT22;65428;53.194;6.132;2023-08-21T05:21:27;13.60;99.90
76567;DHT22;65428;53.194;6.132;2023-08-21T05:23:53;13.90;99.90
76567;DHT22;65428;53.194;6.132;2023-08-21T05:26:19;13.80;99.90
76567;DHT22;65428;53.194;6.132;2023-08-21T05:28:45;13.90;99.90
76567;DHT22;65428;53.194;6.132;2023-08-21T05:31:11;14.10;99.90
76567;DHT22;65428;53.194;6.132;2023-08-21T05:33:36;14.30;99.90
76567;DHT22;65428;53.194;6.132;2023-08-21T05:36:02;14.70;99.90
76567;DHT22;65428;53.194;6.132;2023-08-21T05:38:28;14.40;99.90
76567;DHT22;65428;53.194;6.132;2023-08-21T05:40:54;15.00;99.90
76567;DHT22;65428;53.194;6.132;2023-08-21T05:43:20;14.80;99.90
76567;DHT22;65428;53.194;6.132;2023-08-21T05:45:45;14.80;99.90
76567;DHT22;65428;53.194;6.132;2023-08-21T05:48:11;15.10;99.90
76567;DHT22;65428;53.194;6.132;2023-08-21T05:50:37;15.50;99.90
76567;DHT22;65428;53.194;6.132;2023-08-21T05:53:06;15.50;99.90
76567;DHT22;65428;53.194;6.132;2023-08-21T05:55:32;15.30;99.90
76567;DHT22;65428;53.194;6.132;2023-08-21T05:57:58;15.80;99.90
76567;DHT22;65428;53.194;6.132;2023-08-21T06:00:24;15.90;99.90
76567;DHT22;65428;53.194;6.132;2023-08-21T06:02:49;15.80;99.90
76567;DHT22;65428;53.194;6.132;2023-08-21T06:05:15;15.90;99.90
76567;DHT22;65428;53.194;6.132;2023-08-21T06:07:41;16.10;99.90
76567;DHT22;65428;53.194;6.132;2023-08-21T06:10:07;16.30;99.90
76567;DHT22;65428;53.194;6.132;2023-08-21T06:12:34;16.50;99.90
76567;DHT22;65428;53.194;6.132;2023-08-21T06:14:59;16.60;99.90
76567;DHT22;65428;53.194;6.132;2023-08-21T06:17:27;16.80;99.90
76567;DHT22;65428;53.194;6.132;2023-08-21T06:19:53;16.90;99.90
76567;DHT22;65428;53.194;6.132;2023-08-21T06:22:18;17.00;99.90
76567;DHT22;65428;53.194;6.132;2023-08-21T06:24:44;17.50;99.90
76567;DHT22;65428;53.194;6.132;2023-08-21T06:27:10;17.40;99.90
76567;DHT22;65428;53.194;6.132;2023-08-21T06:29:36;17.40;99.90
76567;DHT22;65428;53.194;6.132;2023-08-21T06:32:03;17.60;99.90
76567;DHT22;65428;53.194;6.132;2023-08-21T06:34:28;17.70;99.90
76567;DHT22;65428;53.194;6.132;2023-08-21T06:36:54;17.80;99.90
76567;DHT22;65428;53.194;6.132;2023-08-21T06:39:20;18.00;99.90
76567;DHT22;65428;53.194;6.132;2023-08-21T06:41:46;18.10;99.90
76567;DHT22;65428;53.194;6.132;2023-08-21T06:44:11;18.50;99.90
76567;DHT22;65428;53.194;6.132;2023-08-21T06:46:37;18.80;99.90
76567;DHT22;65428;53.194;6.132;2023-08-21T06:49:02;18.90;99.90
76567;DHT22;65428;53.194;6.132;2023-08-21T06:51:29;18.70;99.90
76567;DHT22;65428;53.194;6.132;2023-08-21T06:53:54;18.90;99.90
76567;DHT22;65428;53.194;6.132;2023-08-21T06:56:20;18.70;99.90
76567;DHT22;65428;53.194;6.132;2023-08-21T06:58:46;19.10;99.90
76567;DHT22;65428;53.194;6.132;2023-08-21T07:01:11;19.30;99.90
76567;DHT22;65428;53.194;6.132;2023-08-21T07:03:37;19.40;99.90
76567;DHT22;65428;53.194;6.132;2023-08-21T07:06:03;19.70;99.90
76567;DHT22;65428;53.194;6.132;2023-08-21T07:08:29;19.80;99.90
76567;DHT22;65428;53.194;6.132;2023-08-21T07:10:54;20.30;99.90
76567;DHT22;65428;53.194;6.132;2023-08-21T07:13:20;19.90;99.90
76567;DHT22;65428;53.194;6.132;2023-08-21T07:15:47;20.00;99.90
76567;DHT22;65428;53.194;6.132;2023-08-21T07:18:13;20.20;99.90
76567;DHT22;65428;53.194;6.132;2023-08-21T07:20:39;20.20;99.90
76567;DHT22;65428;53.194;6.132;2023-08-21T07:23:05;20.30;99.90
76567;DHT22;65428;53.194;6.132;2023-08-21T07:25:31;20.40;99.90
76567;DHT22;65428;53.194;6.132;2023-08-21T07:27:57;20.50;99.90
76567;DHT22;65428;53.194;6.132;2023-08-21T07:30:24;20.60;99.90
76567;DHT22;65428;53.194;6.132;2023-08-21T07:32:49;20.70;99.90
76567;DHT22;65428;53.194;6.132;2023-08-21T07:35:15;20.80;99.90
76567;DHT22;65428;53.194;6.132;2023-08-21T07:37:45;20.90;99.90
76567;DHT22;65428;53.194;6.132;2023-08-21T07:40:11;21.40;99.90
76567;DHT22;65428;53.194;6.132;2023-08-21T07:42:37;21.20;99.90
76567;DHT22;65428;53.194;6.132;2023-08-21T07:45:03;21.20;99.90
76567;DHT22;65428;53.194;6.132;2023-08-21T07:47:29;21.20;99.90
76567;DHT22;65428;53.194;6.132;2023-08-21T07:49:56;21.30;99.90
76567;DHT22;65428;53.194;6.132;2023-08-21T07:52:21;21.40;99.90
76567;DHT22;65428;53.194;6.132;2023-08-21T07:54:54;21.60;99.90
76567;DHT22;65428;53.194;6.132;2023-08-21T07:57:20;21.60;99.90
76567;DHT22;65428;53.194;6.132;2023-08-21T07:59:45;21.70;99.90
76567;DHT22;65428;53.194;6.132;2023-08-21T08:02:11;21.70;99.90
76567;DHT22;65428;53.194;6.132;2023-08-21T08:04:38;21.90;99.90
76567;DHT22;65428;53.194;6.132;2023-08-21T08:07:04;21.90;99.90
76567;DHT22;65428;53.194;6.132;2023-08-21T08:09:30;22.00;99.90
76567;DHT22;65428;53.194;6.132;2023-08-21T08:11:56;22.10;99.90
76567;DHT22;65428;53.194;6.132;2023-08-21T08:14:21;22.20;99.90
76567;DHT22;65428;53.194;6.132;2023-08-21T08:16:47;22.30;99.90
76567;DHT22;65428;53.194;6.132;2023-08-21T08:19:13;22.30;99.90
76567;DHT22;65428;53.194;6.132;2023-08-21T08:21:38;22.30;99.90
76567;DHT22;65428;53.194;6.132;2023-08-21T08:24:04;22.30;99.90
76567;DHT22;65428;53.194;6.132;2023-08-21T08:26:30;22.40;99.90
76567;DHT22;65428;53.194;6.132;2023-08-21T08:28:56;22.50;99.90
76567;DHT22;65428;53.194;6.132;2023-08-21T08:31:21;22.50;99.90
76567;DHT22;65428;53.194;6.132;2023-08-21T08:33:49;22.70;99.90
76567;DHT22;65428;53.194;6.132;2023-08-21T08:36:14;22.70;99.90
76567;DHT22;65428;53.194;6.132;2023-08-21T08:38:40;22.80;99.90
76567;DHT22;65428;53.194;6.132;2023-08-21T08:41:11;23.20;99.90
76567;DHT22;65428;53.194;6.132;2023-08-21T08:43:39;22.90;99.90
76567;DHT22;65428;53.194;6.132;2023-08-21T08:46:07;23.40;99.90
76567;DHT22;65428;53.194;6.132;2023-08-21T08:48:35;23.20;99.90
76567;DHT22;65428;53.194;6.132;2023-08-21T08:51:02;23.30;99.90
76567;DHT22;65428;53.194;6.132;2023-08-21T08:53:29;22.90;99.90
76567;DHT22;65428;53.194;6.132;2023-08-21T08:55:56;23.20;99.90
76567;DHT22;65428;53.194;6.132;2023-08-21T08:58:22;23.20;99.90
76567;DHT22;65428;53.194;6.132;2023-08-21T09:00:48;23.30;99.90
76567;DHT22;65428;53.194;6.132;2023-08-21T09:03:14;23.30;99.90
76567;DHT22;65428;53.194;6.132;2023-08-21T09:05:41;23.60;99.90
76567;DHT22;65428;53.194;6.132;2023-08-21T09:08:12;23.70;99.90
76567;DHT22;65428;53.194;6.132;2023-08-21T09:10:39;23.60;99.90
76567;DHT22;65428;53.194;6.132;2023-08-21T09:13:13;23.60;99.90
76567;DHT22;65428;53.194;6.132;2023-08-21T09:15:41;23.80;99.90
76567;DHT22;65428;53.194;6.132;2023-08-21T09:18:11;23.90;99.90
76567;DHT22;65428;53.194;6.132;2023-08-21T09:20:37;24.10;99.90
76567;DHT22;65428;53.194;6.132;2023-08-21T09:23:03;24.00;99.90
76567;DHT22;65428;53.194;6.132;2023-08-21T09:25:37;24.20;99.90
76567;DHT22;65428;53.194;6.132;2023-08-21T09:28:07;24.10;99.90
76567;DHT22;65428;53.194;6.132;2023-08-21T09:30:53;24.50;99.90
76567;DHT22;65428;53.194;6.132;2023-08-21T09:33:22;24.30;99.40
76567;DHT22;65428;53.194;6.132;2023-08-21T09:35:49;24.40;99.90
76567;DHT22;65428;53.194;6.132;2023-08-21T09:38:16;24.50;99.90
76567;DHT22;65428;53.194;6.132;2023-08-21T09:40:43;24.60;94.00
76567;DHT22;65428;53.194;6.132;2023-08-21T09:43:11;24.70;92.00
76567;DHT22;65428;53.194;6.132;2023-08-21T09:45:37;24.80;90.90
76567;DHT22;65428;53.194;6.132;2023-08-21T09:48:03;24.80;95.20
76567;DHT22;65428;53.194;6.132;2023-08-21T09:50:30;24.90;95.00
76567;DHT22;65428;53.194;6.132;2023-08-21T09:52:59;25.00;95.70
76567;DHT22;65428;53.194;6.132;2023-08-21T09:55:25;25.20;93.60
76567;DHT22;65428;53.194;6.132;2023-08-21T09:57:59;25.40;85.20
76567;DHT22;65428;53.194;6.132;2023-08-21T10:00:36;25.90;80.10
76567;DHT22;65428;53.194;6.132;2023-08-21T10:03:07;25.90;83.20
76567;DHT22;65428;53.194;6.132;2023-08-21T10:05:37;25.90;80.60
76567;DHT22;65428;53.194;6.132;2023-08-21T10:08:05;26.10;80.30
76567;DHT22;65428;53.194;6.132;2023-08-21T10:10:32;26.30;73.70
76567;DHT22;65428;53.194;6.132;2023-08-21T10:12:59;26.50;73.10
76567;DHT22;65428;53.194;6.132;2023-08-21T10:15:26;26.70;78.60
76567;DHT22;65428;53.194;6.132;2023-08-21T10:17:53;27.10;69.70
76567;DHT22;65428;53.194;6.132;2023-08-21T10:20:24;27.00;67.50
76567;DHT22;65428;53.194;6.132;2023-08-21T10:22:53;27.40;66.70
76567;DHT22;65428;53.194;6.132;2023-08-21T10:25:24;27.40;61.60
76567;DHT22;65428;53.194;6.132;2023-08-21T10:27:59;28.00;61.80
76567;DHT22;65428;53.194;6.132;2023-08-21T10:30:29;28.50;59.70
76567;DHT22;65428;53.194;6.132;2023-08-21T10:32:58;28.80;57.00
76567;DHT22;65428;53.194;6.132;2023-08-21T10:35:36;29.00;56.90
76567;DHT22;65428;53.194;6.132;2023-08-21T10:38:09;29.10;53.40
76567;DHT22;65428;53.194;6.132;2023-08-21T10:40:36;29.20;56.70
76567;DHT22;65428;53.194;6.132;2023-08-21T10:43:03;29.50;57.00
76567;DHT22;65428;53.194;6.132;2023-08-21T10:45:30;29.60;53.80
76567;DHT22;65428;53.194;6.132;2023-08-21T10:47:59;29.70;52.10
76567;DHT22;65428;53.194;6.132;2023-08-21T10:50:26;29.70;54.70
76567;DHT22;65428;53.194;6.132;2023-08-21T10:52:53;29.90;54.80
76567;DHT22;65428;53.194;6.132;2023-08-21T10:55:19;30.10;53.90
76567;DHT22;65428;53.194;6.132;2023-08-21T10:57:47;30.40;52.50
76567;DHT22;65428;53.194;6.132;2023-08-21T11:00:15;31.00;51.90
76567;DHT22;65428;53.194;6.132;2023-08-21T11:02:44;31.10;54.10
76567;DHT22;65428;53.194;6.132;2023-08-21T11:05:11;31.40;48.60
76567;DHT22;65428;53.194;6.132;2023-08-21T11:07:39;31.70;49.40
76567;DHT22;65428;53.194;6.132;2023-08-21T11:10:11;32.00;48.20
76567;DHT22;65428;53.194;6.132;2023-08-21T11:12:56;32.10;46.60
76567;DHT22;65428;53.194;6.132;2023-08-21T11:15:22;31.70;46.50
76567;DHT22;65428;53.194;6.132;2023-08-21T11:17:59;30.80;48.80
76567;DHT22;65428;53.194;6.132;2023-08-21T11:20:33;30.00;48.90
76567;DHT22;65428;53.194;6.132;2023-08-21T11:23:03;29.20;50.60
76567;DHT22;65428;53.194;6.132;2023-08-21T11:25:33;29.10;53.50
76567;DHT22;65428;53.194;6.132;2023-08-21T11:27:59;29.40;52.00
76567;DHT22;65428;53.194;6.132;2023-08-21T11:30:28;29.80;52.80
76567;DHT22;65428;53.194;6.132;2023-08-21T11:33:12;30.00;50.40
76567;DHT22;65428;53.194;6.132;2023-08-21T11:35:39;30.20;50.00
76567;DHT22;65428;53.194;6.132;2023-08-21T11:38:05;30.20;51.70
76567;DHT22;65428;53.194;6.132;2023-08-21T11:40:34;30.30;48.70
76567;DHT22;65428;53.194;6.132;2023-08-21T11:43:01;30.50;51.40
76567;DHT22;65428;53.194;6.132;2023-08-21T11:45:27;30.70;48.30
76567;DHT22;65428;53.194;6.132;2023-08-21T11:47:55;30.90;46.50
76567;DHT22;65428;53.194;6.132;2023-08-21T11:50:21;31.30;48.20
76567;DHT22;65428;53.194;6.132;2023-08-21T11:52:53;31.70;49.80
76567;DHT22;65428;53.194;6.132;2023-08-21T11:55:20;31.50;45.60
76567;DHT22;65428;53.194;6.132;2023-08-21T11:57:47;31.30;49.00
76567;DHT22;65428;53.194;6.132;2023-08-21T12:00:13;31.40;48.30
76567;DHT22;65428;53.194;6.132;2023-08-21T12:02:41;31.60;49.10
76567;DHT22;65428;53.194;6.132;2023-08-21T12:05:14;31.70;48.50
76567;DHT22;65428;53.194;6.132;2023-08-21T12:07:40;31.80;46.80
76567;DHT22;65428;53.194;6.132;2023-08-21T12:10:06;32.00;48.20
76567;DHT22;65428;53.194;6.132;2023-08-21T12:12:32;32.40;46.00
76567;DHT22;65428;53.194;6.132;2023-08-21T12:14:58;32.80;46.30
76567;DHT22;65428;53.194;6.132;2023-08-21T12:17:23;32.90;46.20
76567;DHT22;65428;53.194;6.132;2023-08-21T12:19:49;33.00;42.20
76567;DHT22;65428;53.194;6.132;2023-08-21T12:22:15;33.30;46.00
76567;DHT22;65428;53.194;6.132;2023-08-21T12:24:40;33.60;43.50
76567;DHT22;65428;53.194;6.132;2023-08-21T12:27:06;33.40;43.20
76567;DHT22;65428;53.194;6.132;2023-08-21T12:29:32;33.50;44.90
76567;DHT22;65428;53.194;6.132;2023-08-21T12:31:58;33.80;42.60
76567;DHT22;65428;53.194;6.132;2023-08-21T12:34:23;34.20;45.10
76567;DHT22;65428;53.194;6.132;2023-08-21T12:36:52;34.30;40.30
76567;DHT22;65428;53.194;6.132;2023-08-21T12:39:18;34.30;38.80
76567;DHT22;65428;53.194;6.132;2023-08-21T12:41:43;34.20;43.40
76567;DHT22;65428;53.194;6.132;2023-08-21T12:44:09;34.30;41.20
76567;DHT22;65428;53.194;6.132;2023-08-21T12:46:36;34.30;40.70
76567;DHT22;65428;53.194;6.132;2023-08-21T12:49:02;34.50;39.40
76567;DHT22;65428;53.194;6.132;2023-08-21T12:51:28;34.40;40.20
76567;DHT22;65428;53.194;6.132;2023-08-21T12:53:54;34.40;41.60
76567;DHT22;65428;53.194;6.132;2023-08-21T12:56:20;34.50;40.70
76567;DHT22;65428;53.194;6.132;2023-08-21T12:58:46;34.70;41.60
76567;DHT22;65428;53.194;6.132;2023-08-21T13:01:12;34.80;38.10
76567;DHT22;65428;53.194;6.132;2023-08-21T13:03:38;35.10;39.60
76567;DHT22;65428;53.194;6.132;2023-08-21T13:06:06;35.40;40.90
76567;DHT22;65428;53.194;6.132;2023-08-21T13:08:32;35.50;40.40
76567;DHT22;65428;53.194;6.132;2023-08-21T13:10:58;35.30;36.60
76567;DHT22;65428;53.194;6.132;2023-08-21T13:13:23;35.00;38.40
76567;DHT22;65428;53.194;6.132;2023-08-21T13:15:49;34.70;36.90
76567;DHT22;65428;53.194;6.132;2023-08-21T13:18:16;34.20;39.10
76567;DHT22;65428;53.194;6.132;2023-08-21T13:20:42;33.70;38.20
76567;DHT22;65428;53.194;6.132;2023-08-21T13:23:08;33.50;41.00
76567;DHT22;65428;53.194;6.132;2023-08-21T13:25:34;33.40;40.00
76567;DHT22;65428;53.194;6.132;2023-08-21T13:28:00;33.50;40.60
76567;DHT22;65428;53.194;6.132;2023-08-21T13:30:26;33.60;43.70
76567;DHT22;65428;53.194;6.132;2023-08-21T13:32:52;34.00;42.10
76567;DHT22;65428;53.194;6.132;2023-08-21T13:35:39;34.20;38.40
76567;DHT22;65428;53.194;6.132;2023-08-21T13:38:05;33.90;36.60
76567;DHT22;65428;53.194;6.132;2023-08-21T13:40:34;34.10;39.60
76567;DHT22;65428;53.194;6.132;2023-08-21T13:43:02;34.10;39.60
76567;DHT22;65428;53.194;6.132;2023-08-21T13:45:29;33.80;41.50
76567;DHT22;65428;53.194;6.132;2023-08-21T13:47:54;33.40;42.90
76567;DHT22;65428;53.194;6.132;2023-08-21T13:50:20;32.80;42.60
76567;DHT22;65428;53.194;6.132;2023-08-21T13:52:47;32.20;44.10
76567;DHT22;65428;53.194;6.132;2023-08-21T13:55:14;31.80;46.30
76567;DHT22;65428;53.194;6.132;2023-08-21T13:57:39;31.60;45.90
76567;DHT22;65428;53.194;6.132;2023-08-21T14:00:07;31.50;47.50
76567;DHT22;65428;53.194;6.132;2023-08-21T14:02:34;31.30;48.60
76567;DHT22;65428;53.194;6.132;2023-08-21T14:05:00;31.50;47.50
76567;DHT22;65428;53.194;6.132;2023-08-21T14:07:26;31.40;47.70
76567;DHT22;65428;53.194;6.132;2023-08-21T14:09:55;30.90;48.90
76567;DHT22;65428;53.194;6.132;2023-08-21T14:12:21;30.40;48.60
76567;DHT22;65428;53.194;6.132;2023-08-21T14:14:46;30.20;52.00
76567;DHT22;65428;53.194;6.132;2023-08-21T14:17:12;29.50;52.60
76567;DHT22;65428;53.194;6.132;2023-08-21T14:19:38;29.50;53.40
76567;DHT22;65428;53.194;6.132;2023-08-21T14:22:03;29.70;53.20
76567;DHT22;65428;53.194;6.132;2023-08-21T14:24:40;29.80;53.30
76567;DHT22;65428;53.194;6.132;2023-08-21T14:27:06;30.10;51.60
76567;DHT22;65428;53.194;6.132;2023-08-21T14:29:32;30.10;52.00
76567;DHT22;65428;53.194;6.132;2023-08-21T14:32:00;30.00;49.20
76567;DHT22;65428;53.194;6.132;2023-08-21T14:34:29;29.50;51.20
76567;DHT22;65428;53.194;6.132;2023-08-21T14:37:07;29.20;52.10
76567;DHT22;65428;53.194;6.132;2023-08-21T14:39:33;29.00;51.80
76567;DHT22;65428;53.194;6.132;2023-08-21T14:41:59;28.90;53.00
76567;DHT22;65428;53.194;6.132;2023-08-21T14:44:25;28.50;51.10
76567;DHT22;65428;53.194;6.132;2023-08-21T14:46:53;28.10;51.90
76567;DHT22;65428;53.194;6.132;2023-08-21T14:49:20;27.90;52.70
76567;DHT22;65428;53.194;6.132;2023-08-21T14:51:45;27.60;53.40
76567;DHT22;65428;53.194;6.132;2023-08-21T14:54:11;27.40;53.00
76567;DHT22;65428;53.194;6.132;2023-08-21T14:56:40;27.20;54.90
76567;DHT22;65428;53.194;6.132;2023-08-21T14:59:06;27.10;56.40
76567;DHT22;65428;53.194;6.132;2023-08-21T15:01:39;26.90;54.80
76567;DHT22;65428;53.194;6.132;2023-08-21T15:04:07;26.80;56.20
76567;DHT22;65428;53.194;6.132;2023-08-21T15:06:34;26.90;57.40
76567;DHT22;65428;53.194;6.132;2023-08-21T15:09:00;26.60;57.60
76567;DHT22;65428;53.194;6.132;2023-08-21T15:11:26;26.50;59.00
76567;DHT22;65428;53.194;6.132;2023-08-21T15:13:52;26.60;60.90
76567;DHT22;65428;53.194;6.132;2023-08-21T15:16:17;26.60;58.80
76567;DHT22;65428;53.194;6.132;2023-08-21T15:18:45;26.50;63.50
76567;DHT22;65428;53.194;6.132;2023-08-21T15:21:23;26.60;61.50
76567;DHT22;65428;53.194;6.132;2023-08-21T15:23:54;26.70;58.80
76567;DHT22;65428;53.194;6.132;2023-08-21T15:26:20;26.70;62.40
76567;DHT22;65428;53.194;6.132;2023-08-21T15:28:47;26.80;61.10